Cameron Village, North Carolina
Current Conditions -  °F | °C
As of 4:51 PM on Thursday 27 Nov 2014 (Local Time) from KRDU Reporting Station
Scattered Clouds Scattered Clouds  
Wind Chill: 42°   Ceiling: Unl
Heat Index: 44°   Visibility: 10mi
Dew Point: 34°   Wind: 5mph
Humidity: 68%   Direction: 310°NW
Pressure: 30.12"   Gusts: NA
Location:  35.7907°N, 78.6542°W
Report Text: KRDU 272151Z 31004KT 10SM FEW033 SCT065 SCT250 07/01 A3012 RMK AO2 RAE15 SLP201 P0000 T00670011 $
Loading
Personal Weather Stations






























Interactive Weather Map New forecast layout! Learn more

10-Day Weather Forecast

Advertisements
Track Severe Weather on mobile